Time;durP1;ratioP1;P1;durP2;ratioP2;P2;SDS_P1;SDS_P2;PMS_P1;PMS_P2;Temp;Humidity;BMP_temperature;BMP_pressure;BME280_temperature;BME280_humidity;BME280_pressure;Samples;Min_cycle;Max_cycle;Signal;HPM_P1;HPM_P2
2021/08/18 00:00:45;;;;;;;20.87;11.90;;;;;;;16.91;68.66;96865.97;5064268;28;20449;-70
2021/08/18 00:03:11;;;;;;;23.43;11.80;;;;;;;16.68;69.28;96857.34;5064090;28;20179;-70
2021/08/18 00:05:38;;;;;;;20.77;12.50;;;;;;;16.76;69.11;96855.56;5054930;28;20441;-70
2021/08/18 00:08:07;;;;;;;21.87;11.87;;;;;;;16.73;69.36;96849.66;5070266;28;20421;-70
2021/08/18 00:10:33;;;;;;;24.93;13.40;;;;;;;16.68;69.76;96852.06;5069192;28;20543;-69
2021/08/18 00:12:58;;;;;;;22.00;11.63;;;;;;;16.53;69.41;96848.75;5052442;28;20456;-70
2021/08/18 00:15:25;;;;;;;25.50;13.00;;;;;;;16.68;69.54;96841.47;5069050;28;20198;-69
2021/08/18 00:17:51;;;;;;;18.30;10.83;;;;;;;16.90;68.78;96849.25;5069276;28;20201;-70
2021/08/18 00:20:17;;;;;;;22.97;11.90;;;;;;;16.64;70.03;96850.03;5059887;28;20916;-70
2021/08/18 00:22:44;;;;;;;23.30;12.90;;;;;;;16.41;71.26;96851.97;5069800;28;20492;-70
2021/08/18 00:25:11;;;;;;;25.37;11.50;;;;;;;16.69;70.38;96848.41;5068844;28;20478;-69
2021/08/18 00:27:37;;;;;;;21.53;12.80;;;;;;;16.92;69.15;96841.13;5068387;28;20930;-70
2021/08/18 00:30:04;;;;;;;21.70;12.33;;;;;;;16.99;68.49;96847.25;5068929;28;20424;-69
2021/08/18 00:32:29;;;;;;;24.57;13.03;;;;;;;16.61;70.04;96845.94;5069773;28;20240;-70
2021/08/18 00:34:55;;;;;;;23.17;13.10;;;;;;;16.30;71.08;96844.63;5067719;28;20440;-70
2021/08/18 00:37:21;;;;;;;19.70;11.27;;;;;;;16.47;70.59;96850.38;5029428;28;1098815;-69
2021/08/18 00:39:46;;;;;;;20.07;12.23;;;;;;;16.40;71.33;96845.06;5068252;28;20450;-68
2021/08/18 00:42:12;;;;;;;22.63;14.10;;;;;;;16.39;71.16;96848.72;5069397;28;20175;-70
2021/08/18 00:44:37;;;;;;;23.50;13.37;;;;;;;16.20;71.49;96841.53;5070075;28;20634;-69
2021/08/18 00:47:05;;;;;;;23.03;13.00;;;;;;;16.41;70.40;96849.34;5070796;28;20185;-70
2021/08/18 00:49:31;;;;;;;25.70;13.47;;;;;;;16.48;70.88;96845.91;5069593;28;20202;-69
2021/08/18 00:51:58;;;;;;;23.43;12.77;;;;;;;16.47;70.09;96845.06;5069460;28;20971;-70
2021/08/18 00:54:24;;;;;;;26.17;13.70;;;;;;;16.52;70.45;96833.91;5069412;28;20497;-70
2021/08/18 00:56:51;;;;;;;25.40;13.20;;;;;;;16.74;69.49;96834.56;5069397;28;20431;-69
2021/08/18 00:59:17;;;;;;;20.50;12.17;;;;;;;16.55;69.94;96838.78;5070452;28;20916;-69
2021/08/18 01:01:43;;;;;;;22.93;14.40;;;;;;;16.48;69.95;96837.97;5069438;28;20443;-70
2021/08/18 01:04:10;;;;;;;23.77;13.53;;;;;;;16.37;70.18;96840.19;5069479;28;20183;-69
2021/08/18 01:06:41;;;;;;;22.93;13.93;;;;;;;16.21;70.32;96824.66;5069707;28;20425;-69
2021/08/18 01:09:08;;;;;;;23.00;13.77;;;;;;;16.37;70.24;96828.78;5068869;28;20787;-71
2021/08/18 01:11:35;;;;;;;25.67;13.60;;;;;;;16.83;68.44;96827.25;5060894;28;20564;-71
2021/08/18 01:14:02;;;;;;;22.07;12.73;;;;;;;16.76;68.05;96826.44;5060520;28;20818;-69
2021/08/18 01:16:28;;;;;;;23.23;13.90;;;;;;;16.25;69.85;96831.19;5069409;28;20489;-71
2021/08/18 01:18:54;;;;;;;26.10;13.77;;;;;;;16.40;69.74;96841.59;5062944;28;20461;-70
2021/08/18 01:21:19;;;;;;;26.57;14.60;;;;;;;16.61;68.58;96840.66;5069175;28;20436;-70
2021/08/18 01:23:45;;;;;;;25.67;13.97;;;;;;;16.42;69.41;96839.59;5068540;28;20183;-70
2021/08/18 01:26:10;;;;;;;32.33;13.77;;;;;;;16.85;67.68;96831.34;5069933;28;20234;-70
2021/08/18 01:28:36;;;;;;;25.53;13.87;;;;;;;16.76;67.97;96839.69;5070449;28;20186;-70
2021/08/18 01:31:02;;;;;;;26.33;14.40;;;;;;;16.41;69.18;96837.94;5070110;28;20174;-70
2021/08/18 01:33:27;;;;;;;25.43;14.60;;;;;;;16.73;68.49;96835.59;5052904;28;20493;-69
2021/08/18 01:35:54;;;;;;;30.83;14.53;;;;;;;16.54;68.65;96837.16;5069253;28;20775;-70
2021/08/18 01:38:21;;;;;;;25.63;13.77;;;;;;;16.84;68.24;96835.00;5071156;28;20280;-70
2021/08/18 01:40:51;;;;;;;26.27;14.33;;;;;;;16.86;67.58;96827.66;5072910;28;20421;-70
2021/08/18 01:43:17;;;;;;;26.40;14.77;;;;;;;16.52;68.79;96832.09;5072347;28;20424;-69
2021/08/18 01:45:44;;;;;;;24.60;13.37;;;;;;;16.70;68.79;96834.16;5060861;28;20442;-70
2021/08/18 01:48:15;;;;;;;28.97;14.70;;;;;;;16.49;69.28;96829.03;5068709;28;20558;-70
2021/08/18 01:50:42;;;;;;;24.27;14.40;;;;;;;16.53;68.83;96835.53;5073896;28;20420;-70
2021/08/18 01:53:08;;;;;;;25.87;14.30;;;;;;;16.37;69.33;96832.25;5071933;28;20421;-70
2021/08/18 01:55:34;;;;;;;26.37;14.37;;;;;;;16.58;68.75;96831.28;5068164;28;20440;-69
2021/08/18 01:58:00;;;;;;;24.67;13.50;;;;;;;16.86;67.84;96826.88;5068954;28;20455;-70
2021/08/18 02:00:27;;;;;;;25.50;14.30;;;;;;;16.78;68.25;96829.69;5072726;28;20425;-70
2021/08/18 02:02:53;;;;;;;25.70;14.37;;;;;;;16.85;67.68;96833.19;5056997;28;20213;-69
2021/08/18 02:05:19;;;;;;;24.13;14.70;;;;;;;16.06;70.66;96832.75;5072319;28;20468;-69
2021/08/18 02:07:44;;;;;;;26.93;14.97;;;;;;;16.03;70.83;96828.63;5073397;28;20629;-70
2021/08/18 02:10:15;;;;;;;26.53;15.13;;;;;;;16.38;70.01;96835.69;5072338;28;20253;-70
2021/08/18 02:12:41;;;;;;;28.50;14.23;;;;;;;15.94;71.58;96835.91;5055416;28;20649;-70
2021/08/18 02:15:17;;;;;;;30.10;16.70;;;;;;;16.06;70.50;96822.97;5071742;28;20471;-70
2021/08/18 02:17:43;;;;;;;25.90;14.60;;;;;;;16.15;70.63;96826.25;5071317;28;20887;-69
2021/08/18 02:20:12;;;;;;;24.87;15.03;;;;;;;16.53;69.06;96817.84;5063687;28;20928;-70
2021/08/18 02:22:37;;;;;;;30.70;14.83;;;;;;;16.19;70.32;96824.84;5056242;28;20939;-70
2021/08/18 02:25:05;;;;;;;26.90;15.33;;;;;;;16.73;68.73;96817.91;5055600;28;20500;-70
2021/08/18 02:27:30;;;;;;;27.20;13.77;;;;;;;16.58;68.57;96825.19;5072947;28;20174;-70
2021/08/18 02:29:56;;;;;;;28.10;14.50;;;;;;;16.41;69.21;96822.88;5072850;28;20428;-70
2021/08/18 02:32:21;;;;;;;24.80;14.63;;;;;;;15.92;71.20;96818.63;5056311;28;20183;-70
2021/08/18 02:34:47;;;;;;;25.87;14.70;;;;;;;16.45;69.67;96819.84;5070174;28;20252;-70
2021/08/18 02:37:13;;;;;;;24.93;13.63;;;;;;;16.67;69.11;96823.97;5072466;28;20551;-70
2021/08/18 02:39:38;;;;;;;27.57;14.80;;;;;;;16.70;68.66;96826.22;5071490;28;20202;-69
2021/08/18 02:42:05;;;;;;;29.03;15.00;;;;;;;16.67;69.05;96823.97;5060130;28;20183;-70
2021/08/18 02:44:30;;;;;;;28.60;15.50;;;;;;;16.51;69.24;96824.34;5063964;28;20200;-69
2021/08/18 02:46:56;;;;;;;28.77;14.30;;;;;;;16.20;70.44;96826.47;5064171;28;20779;-70
2021/08/18 02:49:22;;;;;;;28.67;15.10;;;;;;;16.36;70.03;96833.25;5068532;28;20178;-70
2021/08/18 02:51:47;;;;;;;24.60;13.37;;;;;;;16.22;71.02;96826.28;5066629;28;20186;-70
2021/08/18 02:54:13;;;;;;;24.50;14.43;;;;;;;16.80;68.30;96827.66;5071378;28;20182;-70
2021/08/18 02:56:38;;;;;;;26.23;15.77;;;;;;;16.83;68.13;96822.78;5072275;28;20186;-70
2021/08/18 02:59:04;;;;;;;27.33;15.37;;;;;;;16.69;68.22;96829.88;5072998;28;20206;-69
2021/08/18 03:01:30;;;;;;;26.93;14.87;;;;;;;16.27;70.39;96829.97;5075649;28;20182;-70
2021/08/18 03:03:56;;;;;;;24.73;13.67;;;;;;;16.80;67.94;96819.72;5076217;28;20320;-70
2021/08/18 03:06:22;;;;;;;28.70;15.07;;;;;;;16.34;69.41;96832.63;5080452;28;20792;-71
2021/08/18 03:08:47;;;;;;;29.27;13.50;;;;;;;16.89;67.79;96821.16;5078293;28;20170;-70
2021/08/18 03:11:13;;;;;;;22.53;13.00;;;;;;;16.77;68.16;96828.88;5058575;28;20738;-70
2021/08/18 03:13:38;;;;;;;24.40;14.20;;;;;;;16.87;67.68;96823.22;5072517;28;20183;-70
2021/08/18 03:16:04;;;;;;;23.93;14.07;;;;;;;16.88;67.69;96822.19;5063203;28;20210;-70
2021/08/18 03:18:31;;;;;;;26.83;13.40;;;;;;;17.12;66.59;96822.66;5053684;28;20246;-69
2021/08/18 03:20:57;;;;;;;22.10;12.60;;;;;;;17.22;65.78;96817.75;5054084;28;20197;-70
2021/08/18 03:23:23;;;;;;;22.37;13.90;;;;;;;17.25;65.61;96824.47;5054915;28;20448;-69
2021/08/18 03:25:49;;;;;;;22.33;13.63;;;;;;;16.13;70.20;96825.63;5071159;28;20436;-70
2021/08/18 03:28:15;;;;;;;25.13;12.00;;;;;;;16.73;67.84;96831.13;5042233;28;20840;-70
2021/08/18 03:30:41;;;;;;;22.00;13.20;;;;;;;16.92;67.44;96822.59;5051761;28;20662;-70
2021/08/18 03:33:07;;;;;;;22.43;12.07;;;;;;;16.68;67.92;96830.91;5050367;28;20421;-70
2021/08/18 03:35:32;;;;;;;23.13;12.53;;;;;;;16.45;68.90;96831.22;5050671;28;20199;-70
2021/08/18 03:37:58;;;;;;;21.80;11.87;;;;;;;16.66;68.25;96822.34;5051705;28;20211;-70
2021/08/18 03:40:24;;;;;;;25.37;12.63;;;;;;;16.42;68.66;96826.38;5052039;28;20183;-70
2021/08/18 03:42:49;;;;;;;22.97;11.87;;;;;;;16.39;69.70;96832.84;5050628;28;20418;-70
2021/08/18 03:45:15;;;;;;;22.00;13.30;;;;;;;16.33;69.23;96833.66;5049049;28;20206;-71
2021/08/18 03:47:41;;;;;;;18.70;12.13;;;;;;;16.15;70.38;96825.44;5051932;28;20239;-70
2021/08/18 03:50:07;;;;;;;20.73;12.07;;;;;;;16.09;70.70;96827.88;5050926;28;20179;-71
2021/08/18 03:52:33;;;;;;;16.37;10.90;;;;;;;16.54;68.94;96831.88;5052065;28;20175;-70
2021/08/18 03:54:58;;;;;;;20.37;12.60;;;;;;;16.21;69.84;96835.22;5038737;28;20454;-70
2021/08/18 03:57:24;;;;;;;29.87;11.87;;;;;;;16.53;69.22;96827.59;5063075;28;20266;-71
2021/08/18 03:59:50;;;;;;;18.43;10.13;;;;;;;16.60;68.92;96839.03;5065975;28;20187;-69
2021/08/18 04:02:15;;;;;;;18.30;11.40;;;;;;;16.62;68.86;96833.53;5066274;28;20453;-70
2021/08/18 04:04:41;;;;;;;23.97;11.40;;;;;;;16.43;69.58;96835.94;5065005;28;20282;-71
2021/08/18 04:07:06;;;;;;;21.23;11.23;;;;;;;16.38;69.72;96839.16;5071913;28;20191;-72
2021/08/18 04:09:32;;;;;;;17.27;11.73;;;;;;;16.78;68.26;96842.91;5064878;28;20195;-70
2021/08/18 04:11:57;;;;;;;18.23;10.53;;;;;;;16.55;68.94;96836.97;5055098;28;20179;-70
2021/08/18 04:14:23;;;;;;;17.93;11.50;;;;;;;16.66;68.23;96840.84;5049601;28;20199;-71
2021/08/18 04:16:49;;;;;;;19.00;11.07;;;;;;;16.66;68.73;96842.69;5058163;28;20233;-70
2021/08/18 04:19:14;;;;;;;22.87;11.67;;;;;;;17.05;68.32;96841.16;5043865;28;20199;-71
2021/08/18 04:21:40;;;;;;;18.60;10.37;;;;;;;16.62;70.20;96838.81;5052055;28;20693;-70
2021/08/18 04:24:05;;;;;;;15.90;10.37;;;;;;;16.78;69.44;96845.56;5048675;28;20193;-71
2021/08/18 04:26:31;;;;;;;20.23;10.47;;;;;;;16.66;69.60;96843.50;5051761;28;20235;-69
2021/08/18 04:28:57;;;;;;;15.43;9.70;;;;;;;16.89;68.93;96842.31;5047422;28;20599;-70
2021/08/18 04:31:22;;;;;;;15.17;9.70;;;;;;;16.81;69.75;96846.00;5050188;28;20179;-69
2021/08/18 04:33:48;;;;;;;20.80;10.17;;;;;;;16.82;68.95;96846.81;5050409;28;20182;-69
2021/08/18 04:36:15;;;;;;;15.07;8.47;;;;;;;16.35;70.49;96844.84;5062234;28;20436;-69
2021/08/18 04:38:41;;;;;;;12.93;8.10;;;;;;;16.73;69.02;96846.16;5057048;28;20365;-69
2021/08/18 04:41:06;;;;;;;14.73;8.77;;;;;;;16.84;68.31;96850.06;5050744;28;20449;-70
2021/08/18 04:43:32;;;;;;;16.10;9.70;;;;;;;16.04;70.88;96843.47;5053211;28;20182;-69
2021/08/18 04:45:58;;;;;;;19.73;9.30;;;;;;;16.25;70.87;96847.84;5054684;28;20203;-70
2021/08/18 04:48:23;;;;;;;13.63;9.00;;;;;;;16.56;69.67;96848.38;5067008;28;20245;-70
2021/08/18 04:50:49;;;;;;;15.23;7.97;;;;;;;16.52;69.62;96847.13;5049878;28;20219;-69
2021/08/18 04:53:14;;;;;;;10.67;7.90;;;;;;;16.05;71.95;96845.13;5049560;28;20268;-69
2021/08/18 04:55:40;;;;;;;14.17;8.77;;;;;;;15.85;71.86;96842.38;5049087;28;20217;-69
2021/08/18 04:58:06;;;;;;;14.47;8.93;;;;;;;15.95;71.66;96853.41;5046404;28;20218;-69
2021/08/18 05:00:31;;;;;;;22.53;8.50;;;;;;;16.37;70.70;96847.28;5050346;28;20190;-69
2021/08/18 05:02:57;;;;;;;16.40;9.80;;;;;;;16.25;70.95;96852.34;5049867;28;20176;-70
2021/08/18 05:05:23;;;;;;;14.67;8.73;;;;;;;16.34;70.58;96856.44;5049085;28;20274;-69
2021/08/18 05:07:50;;;;;;;11.10;7.57;;;;;;;16.22;70.78;96847.44;5048808;28;20175;-69
2021/08/18 05:10:16;;;;;;;15.57;8.50;;;;;;;16.33;70.38;96854.81;5049368;28;20496;-69
2021/08/18 05:12:41;;;;;;;15.50;8.30;;;;;;;16.44;70.57;96853.44;5029808;28;20426;-69
2021/08/18 05:15:07;;;;;;;11.00;7.53;;;;;;;16.19;71.38;96853.91;5050377;28;20567;-69
2021/08/18 05:17:33;;;;;;;13.20;7.53;;;;;;;15.94;71.50;96851.75;5053981;28;20179;-69
2021/08/18 05:19:59;;;;;;;15.63;8.47;;;;;;;16.03;72.09;96857.72;5045815;28;20431;-70
2021/08/18 05:22:24;;;;;;;12.07;7.97;;;;;;;16.04;71.43;96854.06;5053105;28;20175;-69
2021/08/18 05:24:50;;;;;;;13.00;8.20;;;;;;;16.64;70.41;96853.47;5052818;28;20767;-69
2021/08/18 05:27:15;;;;;;;12.37;7.97;;;;;;;17.06;68.64;96857.84;5048412;28;20194;-70
2021/08/18 05:29:41;;;;;;;11.70;7.00;;;;;;;16.52;70.47;96858.53;5053780;28;20182;-70
2021/08/18 05:32:07;;;;;;;11.30;6.60;;;;;;;16.83;68.66;96854.53;5052940;28;20191;-70
2021/08/18 05:34:32;;;;;;;10.17;7.40;;;;;;;16.80;69.39;96859.41;5045580;28;20626;-70
2021/08/18 05:36:58;;;;;;;9.63;6.60;;;;;;;16.56;69.68;96862.44;5059741;28;20730;-71
2021/08/18 05:39:24;;;;;;;10.20;7.07;;;;;;;16.96;68.65;96864.38;5073387;28;20267;-70
2021/08/18 05:41:49;;;;;;;10.20;6.53;;;;;;;16.89;68.56;96866.13;5073029;28;20183;-69
2021/08/18 05:44:15;;;;;;;10.00;7.00;;;;;;;16.88;68.95;96867.19;5055593;28;20190;-69
2021/08/18 05:46:40;;;;;;;10.20;7.00;;;;;;;16.43;70.69;96863.19;5073257;28;20704;-69
2021/08/18 05:49:06;;;;;;;10.23;6.80;;;;;;;16.92;69.33;96863.09;5072140;28;20182;-71
2021/08/18 05:51:31;;;;;;;11.43;7.00;;;;;;;16.55;70.17;96862.59;5073554;28;20253;-70
2021/08/18 05:53:57;;;;;;;11.00;7.30;;;;;;;16.57;70.19;96866.66;5072514;28;20500;-70
2021/08/18 05:56:23;;;;;;;11.67;7.60;;;;;;;16.73;69.70;96857.59;5064743;28;20208;-70
2021/08/18 05:58:48;;;;;;;10.53;6.40;;;;;;;16.81;69.13;96861.03;5072088;28;20202;-69
2021/08/18 06:01:14;;;;;;;17.80;8.40;;;;;;;16.72;70.03;96863.88;5071322;28;20689;-71
2021/08/18 06:03:39;;;;;;;9.30;6.33;;;;;;;16.51;69.74;96866.66;5071813;28;20183;-70
2021/08/18 06:06:05;;;;;;;10.33;7.27;;;;;;;16.92;68.74;96864.94;5060797;28;20580;-70
2021/08/18 06:08:31;;;;;;;11.97;6.30;;;;;;;17.23;67.77;96867.03;5073068;28;20202;-71
2021/08/18 06:10:56;;;;;;;14.47;6.67;;;;;;;17.20;67.77;96859.50;5073245;28;20272;-71
2021/08/18 06:13:23;;;;;;;10.70;6.90;;;;;;;17.19;67.46;96861.34;5072576;28;20196;-73
2021/08/18 06:15:49;;;;;;;8.70;6.30;;;;;;;17.16;67.71;96860.91;5060876;28;20207;-70
2021/08/18 06:18:15;;;;;;;10.30;7.10;;;;;;;17.74;65.93;96859.47;5067024;28;20815;-70
2021/08/18 06:20:41;;;;;;;10.23;7.00;;;;;;;17.54;66.69;96864.81;5065249;28;20481;-69
2021/08/18 06:23:07;;;;;;;10.33;6.23;;;;;;;17.39;66.47;96868.47;5072548;28;20352;-71
2021/08/18 06:25:32;;;;;;;8.80;5.67;;;;;;;17.16;67.92;96866.22;5072102;28;20287;-70
2021/08/18 06:27:58;;;;;;;7.40;5.30;;;;;;;17.40;66.57;96869.28;5071595;28;20181;-69
2021/08/18 06:30:23;;;;;;;11.37;6.80;;;;;;;17.24;67.33;96866.03;5056758;28;20185;-70
2021/08/18 06:32:49;;;;;;;8.67;6.30;;;;;;;17.58;66.30;96866.84;5073174;28;20267;-69
2021/08/18 06:35:14;;;;;;;11.20;6.30;;;;;;;17.94;65.04;96865.53;5072159;28;20202;-70
2021/08/18 06:37:41;;;;;;;10.07;6.03;;;;;;;17.90;65.17;96864.31;5059380;28;20221;-69
2021/08/18 06:40:10;;;;;;;7.03;5.47;;;;;;;18.14;63.99;96864.72;5072854;28;20190;-70
2021/08/18 06:42:41;;;;;;;7.87;5.73;;;;;;;17.60;65.39;96866.63;5072610;28;20431;-70
2021/08/18 06:45:08;;;;;;;11.80;7.70;;;;;;;17.70;65.43;96866.19;5071375;28;20863;-70
2021/08/18 06:47:36;;;;;;;7.43;5.33;;;;;;;18.08;64.44;96858.38;5064477;28;20464;-69
2021/08/18 06:50:02;;;;;;;8.20;5.53;;;;;;;17.89;64.43;96857.41;5068759;28;20562;-70
2021/08/18 06:52:30;;;;;;;8.93;5.97;;;;;;;17.68;65.53;96866.41;5072564;28;20428;-70
2021/08/18 06:54:56;;;;;;;16.53;9.03;;;;;;;18.29;63.41;96864.47;5069900;28;20542;-70
2021/08/18 06:57:21;;;;;;;8.60;6.10;;;;;;;18.26;63.27;96862.22;5072026;28;20428;-69
2021/08/18 06:59:47;;;;;;;6.93;5.23;;;;;;;18.69;62.12;96869.59;5072672;28;20476;-69
2021/08/18 07:02:13;;;;;;;9.40;5.63;;;;;;;18.14;63.43;96862.06;5072121;28;20183;-70
2021/08/18 07:04:38;;;;;;;7.70;4.90;;;;;;;18.16;63.68;96867.97;5054633;28;20260;-70
2021/08/18 07:07:04;;;;;;;7.50;4.97;;;;;;;17.90;64.82;96869.63;5060651;28;20186;-69
2021/08/18 07:09:30;;;;;;;7.53;4.60;;;;;;;18.42;63.28;96867.06;5064170;28;20245;-70
2021/08/18 07:11:55;;;;;;;6.07;4.87;;;;;;;18.15;63.45;96870.81;5070837;28;20186;-70
2021/08/18 07:14:21;;;;;;;6.00;4.43;;;;;;;17.95;64.11;96863.72;5070651;28;20178;-68
2021/08/18 07:16:46;;;;;;;6.87;4.87;;;;;;;18.50;62.30;96858.06;5071789;28;20178;-70
2021/08/18 07:19:12;;;;;;;10.30;6.00;;;;;;;18.28;63.22;96868.13;5063361;28;20191;-69
2021/08/18 07:21:37;;;;;;;7.37;5.37;;;;;;;17.55;65.46;96872.53;5071996;28;20186;-69
2021/08/18 07:24:03;;;;;;;8.27;4.97;;;;;;;18.33;63.58;96865.69;5071388;28;20182;-68
2021/08/18 07:26:30;;;;;;;9.10;5.00;;;;;;;18.84;61.70;96868.47;5054036;28;20702;-69
2021/08/18 07:28:57;;;;;;;5.10;3.90;;;;;;;19.53;59.90;96860.66;5062390;28;20189;-69
2021/08/18 07:31:23;;;;;;;6.77;4.33;;;;;;;19.09;60.14;96865.09;5054525;28;21046;-68
2021/08/18 07:33:49;;;;;;;6.50;4.30;;;;;;;19.70;58.75;96854.78;5071066;28;20425;-70
2021/08/18 07:36:15;;;;;;;6.47;4.77;;;;;;;19.05;60.21;96862.03;5058904;28;20783;-71
2021/08/18 07:38:40;;;;;;;6.87;4.97;;;;;;;19.51;59.15;96851.28;5071467;28;20210;-69
2021/08/18 07:41:06;;;;;;;7.60;4.70;;;;;;;19.89;59.01;96856.44;5071022;28;20209;-69
2021/08/18 07:43:32;;;;;;;7.70;4.40;;;;;;;19.77;58.50;96853.69;5070963;28;20296;-70
2021/08/18 07:45:57;;;;;;;5.83;4.60;;;;;;;19.90;58.64;96850.09;5070430;28;20206;-70
2021/08/18 07:48:23;;;;;;;6.20;4.20;;;;;;;19.72;58.16;96850.06;5069712;28;20280;-69
2021/08/18 07:50:49;;;;;;;5.87;4.47;;;;;;;18.14;62.88;96858.59;5071360;28;20189;-69
2021/08/18 07:53:14;;;;;;;4.10;3.50;;;;;;;18.96;60.68;96855.38;5070333;28;20178;-70
2021/08/18 07:55:40;;;;;;;5.07;4.30;;;;;;;19.68;58.62;96859.50;5071176;28;20206;-70
2021/08/18 07:58:05;;;;;;;6.00;3.93;;;;;;;20.09;57.73;96858.91;5070762;28;20217;-69
2021/08/18 08:00:33;;;;;;;11.53;7.20;;;;;;;20.34;56.97;96851.88;5046441;28;20259;-68
2021/08/18 08:02:58;;;;;;;5.77;4.10;;;;;;;19.47;58.99;96849.06;5063507;28;20182;-69
2021/08/18 08:05:24;;;;;;;5.57;4.00;;;;;;;20.06;57.87;96859.34;5068285;28;20776;-69
2021/08/18 08:07:49;;;;;;;4.77;4.23;;;;;;;18.95;61.25;96865.19;5060776;28;20187;-69
2021/08/18 08:10:15;;;;;;;3.80;3.37;;;;;;;19.62;59.51;96855.88;5071518;28;20191;-69
2021/08/18 08:12:41;;;;;;;5.90;3.73;;;;;;;19.42;59.76;96851.53;5071388;28;20190;-70
2021/08/18 08:15:08;;;;;;;6.83;3.77;;;;;;;19.89;58.57;96860.97;5070529;28;20204;-70
2021/08/18 08:17:34;;;;;;;3.53;3.23;;;;;;;20.24;56.99;96855.06;5071217;28;20254;-70
2021/08/18 08:20:00;;;;;;;2.13;1.73;;;;;;;19.90;57.85;96854.63;5062285;28;20425;-70
2021/08/18 08:22:25;;;;;;;2.47;2.00;;;;;;;19.77;57.08;96856.34;5053446;28;20432;-70
2021/08/18 08:24:51;;;;;;;2.67;1.30;;;;;;;19.85;56.48;96857.09;5069438;28;20206;-70
2021/08/18 08:27:16;;;;;;;1.60;1.40;;;;;;;20.34;55.99;96860.66;5069853;28;20182;-69
2021/08/18 08:29:42;;;;;;;4.40;1.73;;;;;;;20.73;54.67;96852.38;5070634;28;20174;-69
2021/08/18 08:32:08;;;;;;;1.57;1.47;;;;;;;20.17;56.75;96857.78;5070526;28;20182;-69
2021/08/18 08:34:34;;;;;;;1.90;1.67;;;;;;;19.90;57.42;96859.94;5069889;28;20553;-70
2021/08/18 08:36:59;;;;;;;1.83;1.50;;;;;;;20.35;56.65;96856.97;5040572;28;20236;-69
2021/08/18 08:39:25;;;;;;;1.87;1.57;;;;;;;20.13;57.08;96858.47;5070362;28;20311;-70
2021/08/18 08:41:51;;;;;;;2.60;1.30;;;;;;;20.11;57.02;96856.00;5069839;28;20595;-69
2021/08/18 08:44:19;;;;;;;2.40;1.47;;;;;;;20.36;56.84;96863.91;5068912;28;20185;-69
2021/08/18 08:46:52;;;;;;;2.13;1.17;;;;;;;20.04;57.27;96872.03;5069660;28;20279;-70
2021/08/18 08:49:19;;;;;;;1.60;1.50;;;;;;;20.84;55.57;96866.81;5070788;28;20501;-70
2021/08/18 08:51:49;;;;;;;1.40;1.13;;;;;;;20.80;55.29;96862.97;5074425;28;20511;-69
2021/08/18 08:54:15;;;;;;;4.50;1.30;;;;;;;20.52;55.15;96861.69;5073611;28;20968;-70
2021/08/18 08:56:41;;;;;;;0.90;0.73;;;;;;;19.68;57.73;96867.47;5075459;28;20417;-70
2021/08/18 08:59:07;;;;;;;1.10;0.83;;;;;;;20.05;56.47;96863.03;5075682;28;20479;-70
2021/08/18 09:02:02;;;;;;;1.70;1.03;;;;;;;20.07;56.11;96865.47;5060732;28;20459;-70
2021/08/18 09:04:28;;;;;;;3.00;0.93;;;;;;;20.20;56.00;96865.34;5074690;28;20520;-70
2021/08/18 09:07:05;;;;;;;2.30;0.80;;;;;;;19.69;57.95;96871.75;5064188;28;20447;-69
2021/08/18 09:09:32;;;;;;;6.53;3.20;;;;;;;20.18;56.30;96861.25;5073512;28;20424;-69
2021/08/18 09:12:11;;;;;;;1.07;0.80;;;;;;;19.53;58.16;96871.28;5074423;28;20425;-69
2021/08/18 09:14:37;;;;;;;1.20;1.00;;;;;;;19.92;57.05;96865.81;5073469;28;20446;-67
2021/08/18 09:17:26;;;;;;;1.33;0.90;;;;;;;19.64;57.97;96867.09;5073961;28;20424;-68
2021/08/18 09:20:11;;;;;;;1.40;1.17;;;;;;;19.94;57.79;96869.09;5064787;28;20456;-70
2021/08/18 09:22:45;;;;;;;1.90;1.70;;;;;;;19.69;58.08;96867.25;5073154;28;20421;-70
2021/08/18 09:25:20;;;;;;;1.63;0.90;;;;;;;20.15;56.74;96862.53;5073353;28;20524;-68
2021/08/18 09:27:53;;;;;;;1.80;1.20;;;;;;;19.71;58.18;96873.16;5074216;28;20424;-71
2021/08/18 09:30:40;;;;;;;1.27;1.17;;;;;;;20.17;57.38;96870.25;5073777;28;20436;-70
2021/08/18 09:33:08;;;;;;;2.53;1.43;;;;;;;20.12;57.65;96872.78;5073296;28;20439;-69
2021/08/18 09:35:33;;;;;;;1.10;1.00;;;;;;;19.72;58.69;96866.81;5067454;28;20435;-70
2021/08/18 09:38:02;;;;;;;1.20;1.00;;;;;;;19.82;58.19;96862.84;5065221;28;20452;-70
2021/08/18 09:40:36;;;;;;;1.50;1.13;;;;;;;20.04;58.17;96868.56;5073318;28;20629;-70
2021/08/18 09:43:26;;;;;;;1.00;0.80;;;;;;;20.81;56.07;96862.75;5072420;28;20428;-70
2021/08/18 09:46:05;;;;;;;1.60;1.00;;;;;;;21.21;54.93;96869.34;5066926;28;20959;-70
2021/08/18 09:48:33;;;;;;;1.43;1.20;;;;;;;21.54;53.91;96859.19;5073826;28;20413;-70
2021/08/18 09:51:01;;;;;;;2.70;1.27;;;;;;;22.04;52.69;96855.25;5074102;28;20416;-69
2021/08/18 09:53:29;;;;;;;1.90;1.27;;;;;;;22.11;51.85;96855.94;5055477;28;20440;-70
2021/08/18 09:56:02;;;;;;;1.43;0.83;;;;;;;20.56;55.90;96858.34;5072233;28;20448;-70
2021/08/18 09:58:34;;;;;;;1.13;0.70;;;;;;;21.08;54.23;96864.22;5072846;28;20444;-70
2021/08/18 10:01:03;;;;;;;1.20;1.00;;;;;;;21.70;52.84;96860.38;5071467;28;20428;-68
2021/08/18 10:03:30;;;;;;;2.00;1.10;;;;;;;21.91;51.96;96851.81;5072798;28;20408;-70
2021/08/18 10:05:57;;;;;;;5.73;1.10;;;;;;;21.94;51.86;96861.19;5063198;28;20953;-69
2021/08/18 10:08:23;;;;;;;1.27;1.17;;;;;;;22.17;50.04;96855.00;5071419;28;20439;-68
2021/08/18 10:10:50;;;;;;;1.30;0.80;;;;;;;21.15;52.40;96856.94;5073332;28;20421;-69
2021/08/18 10:13:16;;;;;;;1.00;0.90;;;;;;;21.21;52.22;96855.22;5070771;28;20432;-69
2021/08/18 10:15:42;;;;;;;1.63;1.00;;;;;;;22.20;49.29;96848.38;5071433;28;20483;-70
2021/08/18 10:18:08;;;;;;;3.33;1.50;;;;;;;22.44;48.92;96843.81;5071035;28;20505;-69
2021/08/18 10:20:35;;;;;;;1.10;0.90;;;;;;;22.92;47.29;96847.09;5072596;28;20444;-69
2021/08/18 10:23:10;;;;;;;1.73;1.40;;;;;;;22.70;48.02;96857.63;5071458;28;20935;-68
2021/08/18 10:25:47;;;;;;;1.57;1.20;;;;;;;23.54;46.36;96845.44;5055794;28;20444;-71
2021/08/18 10:28:13;;;;;;;1.60;1.10;;;;;;;23.04;46.79;96851.56;5072398;28;20505;-70
2021/08/18 10:30:46;;;;;;;1.80;1.50;;;;;;;23.25;46.69;96850.88;5067571;28;20424;-70
2021/08/18 10:33:12;;;;;;;1.13;0.97;;;;;;;22.16;49.12;96853.38;5070114;28;20417;-68
2021/08/18 10:35:38;;;;;;;1.33;1.10;;;;;;;21.90;49.63;96852.84;5066757;28;20441;-70
2021/08/18 10:38:28;;;;;;;1.43;1.30;;;;;;;21.55;50.55;96853.63;5065175;28;20456;-68
2021/08/18 10:40:55;;;;;;;1.63;1.43;;;;;;;21.92;49.56;96858.75;5072868;28;20221;-69
2021/08/18 10:43:42;;;;;;;1.67;1.30;;;;;;;21.81;49.49;96859.56;5070679;28;20848;-69
2021/08/18 10:46:07;;;;;;;1.40;1.10;;;;;;;22.03;49.32;96854.44;5070785;28;20440;-69
2021/08/18 10:48:55;;;;;;;1.20;1.10;;;;;;;21.80;49.34;96844.59;5072308;28;20425;-68
2021/08/18 10:51:38;;;;;;;1.73;1.10;;;;;;;22.12;49.34;96840.72;5071512;28;20551;-69
2021/08/18 10:54:29;;;;;;;1.10;1.00;;;;;;;21.86;49.77;96840.22;5070211;28;20879;-70
2021/08/18 10:56:58;;;;;;;1.27;1.03;;;;;;;21.81;50.11;96838.22;5071618;28;20413;-68
2021/08/18 10:59:36;;;;;;;1.70;1.10;;;;;;;22.42;48.91;96835.25;5066132;28;20458;-70
2021/08/18 11:02:09;;;;;;;1.10;1.00;;;;;;;21.95;50.04;96841.47;5065083;28;20432;-70
2021/08/18 11:04:45;;;;;;;1.33;1.00;;;;;;;22.67;48.33;96826.09;5045845;28;20598;-69
2021/08/18 11:07:11;;;;;;;1.10;1.00;;;;;;;22.84;48.14;96845.63;5037857;28;20429;-69
2021/08/18 11:10:00;;;;;;;1.20;1.10;;;;;;;22.30;49.07;96839.78;5071340;28;20507;-69
2021/08/18 11:12:38;;;;;;;1.83;1.40;;;;;;;21.58;51.42;96847.81;5083278;28;20516;-69
2021/08/18 11:15:23;;;;;;;1.20;1.10;;;;;;;22.09;50.34;96847.34;5076967;28;20444;-68
2021/08/18 11:17:50;;;;;;;1.23;1.10;;;;;;;22.38;49.77;96839.41;5073871;28;20417;-69
2021/08/18 11:20:18;;;;;;;2.93;1.27;;;;;;;22.94;48.72;96844.16;5055577;28;20504;-68
2021/08/18 11:22:43;;;;;;;1.20;1.10;;;;;;;23.49;46.85;96841.88;5072058;28;20436;-69
2021/08/18 11:25:11;;;;;;;2.00;1.20;;;;;;;22.27;50.85;96842.91;5069025;28;20444;-69